createdAt,value
2018-06-25T00:01:07.520Z,15.10
2018-06-25T00:03:36.014Z,15.10
2018-06-25T00:06:04.624Z,15.10
2018-06-25T00:08:33.157Z,15.20
2018-06-25T00:11:01.669Z,15.20
2018-06-25T00:13:30.263Z,15.20
2018-06-25T00:15:58.773Z,15.20
2018-06-25T00:20:55.481Z,15.10
2018-06-25T00:23:24.002Z,15.10
2018-06-25T00:25:52.529Z,15.10
2018-06-25T00:28:21.039Z,15.10
2018-06-25T00:30:49.542Z,15.20
2018-06-25T00:33:18.028Z,15.30
2018-06-25T00:35:46.539Z,15.30
2018-06-25T00:38:15.036Z,15.40
2018-06-25T00:43:11.716Z,15.50
2018-06-25T00:45:40.221Z,15.60
2018-06-25T00:48:08.720Z,15.60
2018-06-25T00:50:37.242Z,15.50
2018-06-25T00:53:05.772Z,15.50
2018-06-25T00:55:34.314Z,15.40
2018-06-25T00:58:02.826Z,15.40
2018-06-25T01:02:59.616Z,15.30
2018-06-25T01:05:28.173Z,15.40
2018-06-25T01:07:56.696Z,15.40
2018-06-25T01:10:25.202Z,15.50
2018-06-25T01:12:53.689Z,15.60
2018-06-25T01:15:22.228Z,15.60
2018-06-25T01:17:50.750Z,15.60
2018-06-25T01:20:19.291Z,15.60
2018-06-25T01:22:47.807Z,15.60
2018-06-25T01:25:16.325Z,15.60
2018-06-25T01:27:44.867Z,15.50
2018-06-25T01:32:41.549Z,15.40
2018-06-25T01:35:10.087Z,15.40
2018-06-25T01:37:38.663Z,15.40
2018-06-25T01:40:07.241Z,15.40
2018-06-25T01:42:35.833Z,15.40
2018-06-25T01:45:04.582Z,15.40
2018-06-25T01:47:33.114Z,15.40
2018-06-25T01:50:01.676Z,15.40
2018-06-25T01:52:30.264Z,15.50
2018-06-25T01:54:58.770Z,15.50
2018-06-25T01:57:27.281Z,15.60
2018-06-25T01:59:55.812Z,15.60
2018-06-25T02:02:24.332Z,15.50
2018-06-25T02:04:52.858Z,15.50
2018-06-25T02:09:49.552Z,15.30
2018-06-25T02:12:18.088Z,15.30
2018-06-25T02:14:46.586Z,15.30
2018-06-25T02:19:43.298Z,15.20
2018-06-25T02:22:11.827Z,15.20
2018-06-25T02:24:40.340Z,15.20
2018-06-25T02:29:37.006Z,15.20
2018-06-25T02:34:33.729Z,15.20
2018-06-25T02:37:02.232Z,15.30
2018-06-25T02:39:30.803Z,15.30
2018-06-25T02:41:59.375Z,15.30
2018-06-25T02:44:27.917Z,15.40
2018-06-25T02:51:52.767Z,15.50
2018-06-25T02:54:21.321Z,15.50
2018-06-25T02:56:50.325Z,15.60
2018-06-25T02:59:18.870Z,15.60
2018-06-25T03:04:15.508Z,15.50
2018-06-25T03:06:44.035Z,15.50
2018-06-25T03:09:12.553Z,15.40
2018-06-25T03:11:41.115Z,15.40
2018-06-25T03:14:09.659Z,15.30
2018-06-25T03:16:38.174Z,15.30
2018-06-25T03:19:06.905Z,15.30
2018-06-25T03:21:35.460Z,15.30
2018-06-25T03:24:04.008Z,15.30
2018-06-25T03:26:33.423Z,15.30
2018-06-25T03:29:01.952Z,15.40
2018-06-25T03:31:30.476Z,15.50
2018-06-25T03:33:58.981Z,15.50
2018-06-25T03:36:27.484Z,15.40
2018-06-25T03:38:56.001Z,15.40
2018-06-25T03:41:24.538Z,15.30
2018-06-25T03:43:53.065Z,15.30
2018-06-25T03:46:21.578Z,15.30
2018-06-25T03:48:50.093Z,15.30
2018-06-25T03:51:18.595Z,15.40
2018-06-25T03:53:47.106Z,15.40
2018-06-25T03:56:15.680Z,15.40
2018-06-25T03:58:44.202Z,15.50
2018-06-25T04:03:40.868Z,15.60
2018-06-25T04:06:09.440Z,15.60
2018-06-25T04:08:37.930Z,15.60
2018-06-25T04:11:06.516Z,15.60
2018-06-25T04:13:35.017Z,15.70
2018-06-25T04:16:03.550Z,15.70
2018-06-25T04:18:32.090Z,15.70
2018-06-25T04:21:00.623Z,15.70
2018-06-25T04:23:29.143Z,15.70
2018-06-25T04:25:57.668Z,15.60
2018-06-25T04:28:26.172Z,15.60
2018-06-25T04:30:54.710Z,15.70
2018-06-25T04:33:24.179Z,15.80
2018-06-25T04:35:52.695Z,15.80
2018-06-25T04:38:21.207Z,15.80
2018-06-25T04:40:49.733Z,15.70
2018-06-25T04:43:18.235Z,15.80
2018-06-25T04:45:46.779Z,15.70
2018-06-25T04:48:15.323Z,15.70
2018-06-25T04:50:43.849Z,15.70
2018-06-25T04:53:12.349Z,15.70
2018-06-25T04:55:40.916Z,15.70
2018-06-25T05:00:37.650Z,15.70
2018-06-25T05:03:06.556Z,15.70
2018-06-25T05:05:35.072Z,15.80
2018-06-25T05:10:31.788Z,15.80
2018-06-25T05:13:00.393Z,15.80
2018-06-25T05:15:28.915Z,15.70
2018-06-25T05:17:57.425Z,15.70
2018-06-25T05:20:26.076Z,15.70
2018-06-25T05:25:22.774Z,15.80
2018-06-25T05:27:51.290Z,15.90
2018-06-25T05:30:19.805Z,16.00
2018-06-25T05:32:48.306Z,16.10
2018-06-25T05:37:45.022Z,16.20
2018-06-25T05:40:14.624Z,16.20
2018-06-25T05:42:43.154Z,16.30
2018-06-25T05:45:11.688Z,16.30
2018-06-25T05:47:40.240Z,16.30
2018-06-25T05:52:36.910Z,16.50
2018-06-25T05:57:33.598Z,16.60
2018-06-25T06:00:02.142Z,16.60
2018-06-25T06:02:30.672Z,16.70
2018-06-25T06:04:59.178Z,16.70
2018-06-25T06:07:27.702Z,16.80
2018-06-25T06:09:56.268Z,16.90
2018-06-25T06:12:24.811Z,16.90
2018-06-25T06:14:53.318Z,16.90
2018-06-25T06:17:21.937Z,16.90
2018-06-25T06:19:50.445Z,16.80
2018-06-25T06:22:19.020Z,16.90
2018-06-25T06:24:47.547Z,17.00
2018-06-25T06:27:16.080Z,17.00
2018-06-25T06:29:44.663Z,17.00
2018-06-25T06:32:13.176Z,17.10
2018-06-25T06:34:41.659Z,17.10
2018-06-25T06:37:10.191Z,17.20
2018-06-25T06:39:38.705Z,17.10
2018-06-25T06:42:07.291Z,17.10
2018-06-25T06:44:35.835Z,17.20
2018-06-25T06:47:04.392Z,17.20
2018-06-25T06:49:32.917Z,17.30
2018-06-25T06:52:01.429Z,17.40
2018-06-25T06:54:30.046Z,17.50
2018-06-25T06:56:58.561Z,17.50
2018-06-25T07:01:55.258Z,17.70
2018-06-25T07:04:23.780Z,17.80
2018-06-25T07:06:52.329Z,17.70
2018-06-25T07:09:20.865Z,17.70
2018-06-25T07:11:49.374Z,17.80
2018-06-25T07:14:17.905Z,17.80
2018-06-25T07:16:46.438Z,17.80
2018-06-25T07:21:43.149Z,17.70
2018-06-25T07:24:11.656Z,17.70
2018-06-25T07:26:40.188Z,17.80
2018-06-25T07:29:08.717Z,17.80
2018-06-25T07:31:37.227Z,17.90
2018-06-25T07:34:05.811Z,17.90
2018-06-25T07:36:34.365Z,18.00
2018-06-25T07:39:03.019Z,18.10
2018-06-25T07:43:59.711Z,18.20
2018-06-25T07:46:28.261Z,18.30
2018-06-25T07:48:56.799Z,18.30
2018-06-25T07:51:25.340Z,18.30
2018-06-25T07:53:53.944Z,18.30
2018-06-25T07:56:22.547Z,18.30
2018-06-25T07:58:51.079Z,18.30
2018-06-25T08:01:19.590Z,18.40
2018-06-25T08:06:16.313Z,18.30
2018-06-25T08:08:44.891Z,18.20
2018-06-25T08:11:13.445Z,18.00
2018-06-25T08:13:41.972Z,18.00
2018-06-25T08:16:10.505Z,18.00
2018-06-25T08:18:39.094Z,18.10
2018-06-25T08:21:07.589Z,18.10
2018-06-25T08:23:36.157Z,18.20
2018-06-25T08:26:04.744Z,18.30
2018-06-25T08:28:33.284Z,18.30
2018-06-25T08:31:01.900Z,18.40
2018-06-25T08:33:30.474Z,18.50
2018-06-25T08:35:58.989Z,18.50
2018-06-25T08:40:55.742Z,18.60
2018-06-25T08:43:24.317Z,18.70
2018-06-25T08:45:52.884Z,18.80
2018-06-25T08:48:21.374Z,18.80
2018-06-25T08:50:49.908Z,18.60
2018-06-25T08:55:46.566Z,18.50
2018-06-25T08:58:15.128Z,18.50
2018-06-25T09:00:43.636Z,18.60
2018-06-25T09:03:12.181Z,18.60
2018-06-25T09:05:40.677Z,18.50
2018-06-25T09:08:09.224Z,18.40
2018-06-25T09:10:37.833Z,18.50
2018-06-25T09:13:06.426Z,18.50
2018-06-25T09:15:35.044Z,18.50
2018-06-25T09:18:03.600Z,18.50
2018-06-25T09:20:32.236Z,18.60
2018-06-25T09:23:00.755Z,18.60
2018-06-25T09:25:29.293Z,18.70
2018-06-25T09:28:02.019Z,18.90
2018-06-25T09:30:30.519Z,19.10
2018-06-25T09:32:59.025Z,19.20
2018-06-25T09:35:27.565Z,19.10
2018-06-25T09:42:52.630Z,19.20
2018-06-25T09:45:21.170Z,19.10
2018-06-25T09:47:49.775Z,19.00
2018-06-25T09:50:18.313Z,19.00
2018-06-25T09:52:46.829Z,19.00
2018-06-25T09:55:15.358Z,19.10
2018-06-25T09:57:43.924Z,19.10
2018-06-25T10:00:16.092Z,19.10
2018-06-25T10:02:44.593Z,18.90
2018-06-25T10:05:13.152Z,18.80
2018-06-25T10:07:41.736Z,18.80
2018-06-25T10:10:10.244Z,18.90
2018-06-25T10:12:38.752Z,19.00
2018-06-25T10:15:07.263Z,18.90
2018-06-25T10:17:35.784Z,19.10
2018-06-25T10:20:04.333Z,19.40
2018-06-25T10:22:32.877Z,19.80
2018-06-25T10:29:57.764Z,21.70
2018-06-25T10:32:26.317Z,22.10
2018-06-25T10:34:54.872Z,22.00
2018-06-25T10:37:23.395Z,21.70
2018-06-25T10:42:20.141Z,20.90
2018-06-25T10:44:48.633Z,20.60
2018-06-25T10:47:17.174Z,20.30
2018-06-25T10:49:45.930Z,20.20
2018-06-25T10:52:14.445Z,20.20
2018-06-25T10:54:42.981Z,20.30
2018-06-25T10:57:11.530Z,20.50
2018-06-25T10:59:40.194Z,20.80
2018-06-25T11:02:08.683Z,20.90
2018-06-25T11:04:37.583Z,20.90
2018-06-25T11:07:06.185Z,20.80
2018-06-25T11:09:34.647Z,20.80
2018-06-25T11:12:03.176Z,20.80
2018-06-25T11:14:31.729Z,20.80
2018-06-25T11:17:00.290Z,20.80
2018-06-25T11:24:25.214Z,21.10
2018-06-25T11:26:53.910Z,21.80
2018-06-25T11:29:22.297Z,22.50
2018-06-25T11:31:50.865Z,23.00
2018-06-25T11:34:19.391Z,22.80
2018-06-25T11:36:47.964Z,22.50
2018-06-25T11:41:44.709Z,21.80
2018-06-25T11:44:13.206Z,21.60
2018-06-25T11:46:41.725Z,21.60
2018-06-25T11:49:10.245Z,21.60
2018-06-25T11:51:38.810Z,21.60
2018-06-25T11:54:07.917Z,21.60
2018-06-25T11:56:36.427Z,21.60
2018-06-25T11:59:05.552Z,22.10
2018-06-25T12:01:34.108Z,22.60
2018-06-25T12:04:02.638Z,23.10
2018-06-25T12:06:31.153Z,23.30
2018-06-25T12:08:59.722Z,23.20
2018-06-25T12:11:28.256Z,23.00
2018-06-25T12:13:56.892Z,22.70
2018-06-25T12:16:25.462Z,22.30
2018-06-25T12:18:54.014Z,22.00
2018-06-25T12:21:22.553Z,21.80
2018-06-25T12:23:51.064Z,21.60
2018-06-25T12:26:19.596Z,21.40
2018-06-25T12:28:48.101Z,21.30
2018-06-25T12:31:16.649Z,21.30
2018-06-25T12:33:45.169Z,21.30
2018-06-25T12:36:13.739Z,21.20
2018-06-25T12:38:42.369Z,21.20
2018-06-25T12:41:10.958Z,21.30
2018-06-25T12:43:39.529Z,21.30
2018-06-25T12:46:08.349Z,21.40
2018-06-25T12:48:36.977Z,21.50
2018-06-25T12:51:05.546Z,21.70
2018-06-25T12:53:34.080Z,21.90
2018-06-25T12:56:02.601Z,22.10
2018-06-25T12:58:31.126Z,22.30
2018-06-25T13:00:59.656Z,22.20
2018-06-25T13:05:56.400Z,21.80
2018-06-25T13:08:24.943Z,21.50
2018-06-25T13:10:54.052Z,21.50
2018-06-25T13:13:22.588Z,21.60
2018-06-25T13:20:47.516Z,21.80
2018-06-25T13:23:16.051Z,21.90
2018-06-25T13:25:44.843Z,21.90
2018-06-25T13:28:13.523Z,21.90
2018-06-25T13:30:42.041Z,22.00
2018-06-25T13:33:10.547Z,22.10
2018-06-25T13:35:39.067Z,22.00
2018-06-25T13:38:08.003Z,22.10
2018-06-25T13:40:36.497Z,22.20
2018-06-25T13:43:05.042Z,22.30
2018-06-25T13:45:33.643Z,22.50
2018-06-25T13:48:02.426Z,22.70
2018-06-25T13:50:31.025Z,22.80
2018-06-25T13:52:59.548Z,22.80
2018-06-25T13:55:28.071Z,22.80
2018-06-25T14:00:24.808Z,22.70
2018-06-25T14:02:53.313Z,22.70
2018-06-25T14:05:21.927Z,22.90
2018-06-25T14:07:50.394Z,23.50
2018-06-25T14:10:18.928Z,23.90
2018-06-25T14:12:47.459Z,23.70
2018-06-25T14:15:16.087Z,23.30
2018-06-25T14:17:44.635Z,22.90
2018-06-25T14:20:13.435Z,23.10
2018-06-25T14:22:42.327Z,23.70
2018-06-25T14:25:10.867Z,23.90
2018-06-25T14:27:44.780Z,23.90
2018-06-25T14:30:18.555Z,24.30
2018-06-25T14:32:51.188Z,25.10
2018-06-25T14:35:19.760Z,25.10
2018-06-25T14:37:48.291Z,25.00
2018-06-25T14:40:16.876Z,24.90
2018-06-25T14:45:13.691Z,25.10
2018-06-25T14:47:42.235Z,24.90
2018-06-25T14:52:39.005Z,25.70
2018-06-25T14:55:07.548Z,26.40
2018-06-25T14:57:36.146Z,27.10
2018-06-25T15:00:04.838Z,27.10
2018-06-25T15:02:33.440Z,27.70
2018-06-25T15:05:01.978Z,28.10
2018-06-25T15:07:30.518Z,28.00
2018-06-25T15:09:59.098Z,28.50
2018-06-25T15:12:27.627Z,28.60
2018-06-25T15:14:56.183Z,28.60
2018-06-25T15:19:52.952Z,28.30
2018-06-25T15:24:49.690Z,28.80
2018-06-25T15:27:18.218Z,29.00
2018-06-25T15:29:46.723Z,28.40
2018-06-25T15:32:15.262Z,28.40
2018-06-25T15:37:11.927Z,28.00
2018-06-25T15:39:40.450Z,28.30
2018-06-25T15:42:08.980Z,28.60
2018-06-25T15:44:37.530Z,28.60
2018-06-25T15:47:06.049Z,28.40
2018-06-25T15:49:34.618Z,28.40
2018-06-25T15:52:03.154Z,28.50
2018-06-25T15:54:31.663Z,28.60
2018-06-25T15:57:00.186Z,28.50
2018-06-25T15:59:28.849Z,28.60
2018-06-25T16:01:57.404Z,28.80
2018-06-25T16:04:25.960Z,28.80
2018-06-25T16:06:54.571Z,28.90
2018-06-25T16:09:23.056Z,28.10
2018-06-25T16:11:51.585Z,28.30
2018-06-25T16:14:20.102Z,28.60
2018-06-25T16:16:48.639Z,27.80
2018-06-25T16:21:45.372Z,26.10
2018-06-25T16:24:13.914Z,25.30
2018-06-25T16:26:42.459Z,24.70
2018-06-25T16:29:10.976Z,24.50
2018-06-25T16:31:39.499Z,24.20
2018-06-25T16:34:08.138Z,23.90
2018-06-25T16:36:36.635Z,23.80
2018-06-25T16:39:08.618Z,23.70
2018-06-25T16:41:37.240Z,23.80
2018-06-25T16:44:05.945Z,23.80
2018-06-25T16:46:34.480Z,23.80
2018-06-25T16:49:03.076Z,23.60
2018-06-25T16:51:31.617Z,23.50
2018-06-25T16:54:00.146Z,23.30
2018-06-25T16:56:28.899Z,23.30
2018-06-25T17:03:53.839Z,23.00
2018-06-25T17:06:22.374Z,22.90
2018-06-25T17:08:50.912Z,22.90
2018-06-25T17:11:19.433Z,22.90
2018-06-25T17:13:47.970Z,23.00
2018-06-25T17:16:17.041Z,22.90
2018-06-25T17:18:45.589Z,22.70
2018-06-25T17:21:14.099Z,22.50
2018-06-25T17:23:42.635Z,22.30
2018-06-25T17:26:11.128Z,22.30
2018-06-25T17:28:39.635Z,22.20
2018-06-25T17:31:08.252Z,22.10
2018-06-25T17:33:36.738Z,22.10
2018-06-25T17:36:05.421Z,22.00
2018-06-25T17:38:33.990Z,21.90
2018-06-25T17:41:02.519Z,21.90
2018-06-25T17:43:31.038Z,21.80
2018-06-25T17:45:59.539Z,21.80
2018-06-25T17:50:56.319Z,21.80
2018-06-25T17:53:24.848Z,21.70
2018-06-25T17:55:53.521Z,21.70
2018-06-25T17:58:22.134Z,21.70
2018-06-25T18:00:50.865Z,21.70
2018-06-25T18:05:47.583Z,21.40
2018-06-25T18:08:16.148Z,21.40
2018-06-25T18:10:44.675Z,21.30
2018-06-25T18:13:13.221Z,21.30
2018-06-25T18:15:41.737Z,21.30
2018-06-25T18:18:10.228Z,21.20
2018-06-25T18:20:38.789Z,21.10
2018-06-25T18:23:07.485Z,21.00
2018-06-25T18:25:36.012Z,21.00
2018-06-25T18:28:04.514Z,21.00
2018-06-25T18:33:01.212Z,20.80
2018-06-25T18:35:29.743Z,20.80
2018-06-25T18:37:58.267Z,20.70
2018-06-25T18:40:26.816Z,20.70
2018-06-25T18:42:55.339Z,20.60
2018-06-25T18:45:30.316Z,20.60
2018-06-25T18:47:58.845Z,20.50
2018-06-25T18:50:27.469Z,20.50
2018-06-25T18:52:56.012Z,20.50
2018-06-25T18:55:24.606Z,20.40
2018-06-25T19:02:49.541Z,20.30
2018-06-25T19:05:18.086Z,20.30
2018-06-25T19:07:46.624Z,20.20
2018-06-25T19:10:15.172Z,20.10
2018-06-25T19:12:43.660Z,20.10
2018-06-25T19:15:12.183Z,20.10
2018-06-25T19:20:08.913Z,20.00
2018-06-25T19:22:37.455Z,20.00
2018-06-25T19:25:06.028Z,19.90
2018-06-25T19:27:34.557Z,19.80
2018-06-25T19:30:03.112Z,19.80
2018-06-25T19:32:31.636Z,19.70
2018-06-25T19:35:00.169Z,19.70
2018-06-25T19:37:28.693Z,19.50
2018-06-25T19:39:57.229Z,19.50
2018-06-25T19:42:25.797Z,19.50
2018-06-25T19:44:54.309Z,19.50
2018-06-25T19:49:51.073Z,19.20
2018-06-25T19:52:19.601Z,19.20
2018-06-25T19:54:48.173Z,19.20
2018-06-25T19:57:16.745Z,19.10
2018-06-25T20:02:13.447Z,19.00
2018-06-25T20:04:42.055Z,18.90
2018-06-25T20:07:10.623Z,18.80
2018-06-25T20:09:39.159Z,18.70
2018-06-25T20:12:07.680Z,18.60
2018-06-25T20:14:36.228Z,18.50
2018-06-25T20:17:04.868Z,18.30
2018-06-25T20:19:33.621Z,18.30
2018-06-25T20:22:02.208Z,18.40
2018-06-25T20:24:30.635Z,18.30
2018-06-25T20:26:59.198Z,18.20
2018-06-25T20:29:27.712Z,18.20
2018-06-25T20:31:56.272Z,18.10
2018-06-25T20:36:53.956Z,17.90
2018-06-25T20:41:50.689Z,17.70
2018-06-25T20:44:19.254Z,17.60
2018-06-25T20:46:47.797Z,17.50
2018-06-25T20:51:44.430Z,17.30
2018-06-25T20:54:12.947Z,17.30
2018-06-25T20:56:41.487Z,17.30
2018-06-25T20:59:10.033Z,17.30
2018-06-25T21:01:38.600Z,17.20
2018-06-25T21:04:07.160Z,17.20
2018-06-25T21:06:35.683Z,17.20
2018-06-25T21:09:06.266Z,17.20
2018-06-25T21:11:34.820Z,17.20
2018-06-25T21:14:03.440Z,17.10
2018-06-25T21:16:31.955Z,17.00
2018-06-25T21:19:00.477Z,16.90
2018-06-25T21:21:29.036Z,16.80
2018-06-25T21:26:25.749Z,16.70
2018-06-25T21:28:54.248Z,16.70
2018-06-25T21:31:22.765Z,16.60
2018-06-25T21:33:51.267Z,16.50
2018-06-25T21:36:19.835Z,16.40
2018-06-25T21:38:48.394Z,16.50
2018-06-25T21:41:16.941Z,16.50
2018-06-25T21:43:46.447Z,16.60
2018-06-25T21:46:14.959Z,16.60
2018-06-25T21:48:43.536Z,16.60
2018-06-25T21:51:12.123Z,16.70
2018-06-25T21:53:40.661Z,16.70
2018-06-25T21:56:09.240Z,16.70
2018-06-25T21:58:37.836Z,16.70
2018-06-25T22:01:06.353Z,16.70
2018-06-25T22:03:34.871Z,16.70
2018-06-25T22:06:03.415Z,16.70
2018-06-25T22:08:31.909Z,16.70
2018-06-25T22:23:21.373Z,16.60
2018-06-25T22:25:49.901Z,16.50
2018-06-25T22:28:18.411Z,16.40
2018-06-25T22:30:46.916Z,16.30
2018-06-25T22:33:15.451Z,16.30
2018-06-25T22:35:43.976Z,16.30
2018-06-25T22:38:12.530Z,16.20
2018-06-25T22:40:41.070Z,16.20
2018-06-25T22:43:09.573Z,16.10
2018-06-25T22:48:06.398Z,16.20
2018-06-25T22:50:34.895Z,16.20
2018-06-25T22:53:03.381Z,16.10
2018-06-25T22:55:34.973Z,16.10
2018-06-25T23:00:32.362Z,16.00
2018-06-25T23:03:00.920Z,15.90
2018-06-25T23:05:29.483Z,15.90
2018-06-25T23:07:57.990Z,15.90
2018-06-25T23:10:26.492Z,15.80
2018-06-25T23:12:55.390Z,15.80
2018-06-25T23:15:23.878Z,15.80
2018-06-25T23:22:53.668Z,15.70
2018-06-25T23:25:22.252Z,15.70
2018-06-25T23:27:50.939Z,15.60
2018-06-25T23:30:19.729Z,15.60
2018-06-25T23:32:48.221Z,15.60
2018-06-25T23:35:17.101Z,15.40
2018-06-25T23:37:45.740Z,15.40
2018-06-25T23:40:14.267Z,15.30
2018-06-25T23:45:11.024Z,15.40
2018-06-25T23:50:07.733Z,15.40
2018-06-25T23:52:36.257Z,15.30
2018-06-25T23:55:04.821Z,15.30
2018-06-25T23:57:33.329Z,15.20
